Time,TemperatureF,DewpointF,PressureIn,WindDirection,WindDirectionDegrees,WindSpeedMPH,WindSpeedGustMPH,Humidity,HourlyPrecipIn,Conditions,Clouds,dailyrainin,SoftwareType,DateUTC
2013-12-23 00:00:00,35.9,35.4,29.66,SSE,153,1.0,1.0,98,0.00,,,0.53,Wunderground v.1.15,2013-12-23 05:00:00,
2013-12-23 00:05:00,35.8,35.3,29.66,SSE,163,1.0,2.0,98,0.00,,,0.00,Wunderground v.1.15,2013-12-23 05:05:00,
2013-12-23 00:10:00,35.7,35.2,29.66,SSE,166,1.0,1.0,98,0.00,,,0.00,Wunderground v.1.15,2013-12-23 05:10:00,
2013-12-23 00:15:00,35.6,35.1,29.66,SSE,166,2.0,2.0,98,0.00,,,0.00,Wunderground v.1.15,2013-12-23 05:15:00,
2013-12-23 00:20:00,35.5,35.0,29.66,SSE,163,2.0,2.0,98,0.00,,,0.00,Wunderground v.1.15,2013-12-23 05:20:00,
2013-12-23 00:30:00,35.4,34.9,29.66,SSE,164,3.0,3.0,98,0.00,,,0.00,Wunderground v.1.15,2013-12-23 05:30:00,
2013-12-23 00:40:00,35.2,34.7,29.66,South,178,1.0,1.0,98,0.00,,,0.00,Wunderground v.1.15,2013-12-23 05:40:00,
2013-12-23 00:50:00,35.1,34.6,29.66,South,174,2.0,2.0,98,0.00,,,0.00,Wunderground v.1.15,2013-12-23 05:50:00,
2013-12-23 01:00:00,35.0,34.5,29.66,South,174,0.0,0.0,98,0.00,,,0.00,Wunderground v.1.15,2013-12-23 06:00:00,
2013-12-23 01:05:00,35.1,34.6,29.67,South,174,0.0,0.0,98,0.00,,,0.00,Wunderground v.1.15,2013-12-23 06:05:00,
2013-12-23 01:10:00,35.1,34.6,29.67,South,174,0.0,0.0,98,0.00,,,0.00,Wunderground v.1.15,2013-12-23 06:10:00,
2013-12-23 01:20:00,35.0,34.5,29.66,SE,137,0.0,0.0,98,0.00,,,0.00,Wunderground v.1.15,2013-12-23 06:20:00,
2013-12-23 01:30:00,35.1,34.6,29.66,SE,137,0.0,0.0,98,0.00,,,0.01,Wunderground v.1.15,2013-12-23 06:30:00,
2013-12-23 01:40:00,34.9,34.4,29.67,SE,137,0.0,1.0,98,0.00,,,0.01,Wunderground v.1.15,2013-12-23 06:40:00,
2013-12-23 01:50:00,34.7,34.2,29.67,ENE,69,1.0,1.0,98,0.00,,,0.01,Wunderground v.1.15,2013-12-23 06:50:00,
2013-12-23 02:00:00,34.5,34.0,29.68,ENE,69,0.0,0.0,98,0.00,,,0.01,Wunderground v.1.15,2013-12-23 07:00:00,
2013-12-23 02:10:00,34.4,33.9,29.69,ENE,69,0.0,0.0,98,0.00,,,0.01,Wunderground v.1.15,2013-12-23 07:10:00,
2013-12-23 02:20:00,34.3,33.8,29.69,ENE,69,0.0,1.0,98,0.00,,,0.01,Wunderground v.1.15,2013-12-23 07:20:00,
2013-12-23 02:30:00,34.2,33.7,29.70,ENE,69,0.0,0.0,98,0.00,,,0.01,Wunderground v.1.15,2013-12-23 07:30:00,
2013-12-23 02:40:00,34.0,33.5,29.71,WNW,295,0.0,0.0,98,0.00,,,0.01,Wunderground v.1.15,2013-12-23 07:40:00,
2013-12-23 02:45:00,34.0,33.5,29.70,WNW,295,0.0,0.0,98,0.00,,,0.01,Wunderground v.1.15,2013-12-23 07:45:00,
2013-12-23 02:55:00,33.9,33.4,29.70,WNW,295,0.0,0.0,98,0.00,,,0.01,Wunderground v.1.15,2013-12-23 07:55:00,
2013-12-23 03:00:00,34.0,33.5,29.70,WNW,295,0.0,0.0,98,0.00,,,0.01,Wunderground v.1.15,2013-12-23 08:00:00,
2013-12-23 03:10:00,33.8,33.3,29.70,WNW,295,0.0,0.0,98,0.00,,,0.01,Wunderground v.1.15,2013-12-23 08:10:00,
2013-12-23 03:15:00,33.8,33.3,29.71,WNW,295,0.0,0.0,98,0.00,,,0.01,Wunderground v.1.15,2013-12-23 08:15:00,
2013-12-23 03:25:00,33.6,33.1,29.71,WNW,295,0.0,0.0,98,0.00,,,0.01,Wunderground v.1.15,2013-12-23 08:25:00,
2013-12-23 03:30:00,33.5,33.0,29.71,WNW,295,0.0,0.0,98,0.00,,,0.01,Wunderground v.1.15,2013-12-23 08:30:00,
2013-12-23 03:40:00,33.5,33.0,29.71,WNW,295,0.0,0.0,98,0.00,,,0.01,Wunderground v.1.15,2013-12-23 08:40:00,
2013-12-23 03:50:00,33.5,33.0,29.70,WNW,295,0.0,0.0,98,0.00,,,0.01,Wunderground v.1.15,2013-12-23 08:50:00,
2013-12-23 03:55:00,33.4,32.9,29.70,WNW,295,0.0,0.0,98,0.00,,,0.01,Wunderground v.1.15,2013-12-23 08:55:00,
2013-12-23 04:00:00,33.5,33.0,29.70,WNW,295,0.0,0.0,98,0.00,,,0.01,Wunderground v.1.15,2013-12-23 09:00:00,
2013-12-23 04:05:00,33.4,32.9,29.69,WNW,295,0.0,1.0,98,0.00,,,0.01,Wunderground v.1.15,2013-12-23 09:05:00,
2013-12-23 04:10:00,33.4,32.9,29.69,WNW,295,0.0,0.0,98,0.00,,,0.01,Wunderground v.1.15,2013-12-23 09:10:00,
2013-12-23 04:20:00,33.3,32.8,29.71,WNW,295,0.0,0.0,98,0.00,,,0.01,Wunderground v.1.15,2013-12-23 09:20:00,
2013-12-23 04:30:00,33.2,32.7,29.72,WNW,295,0.0,0.0,98,0.00,,,0.01,Wunderground v.1.15,2013-12-23 09:30:00,
2013-12-23 04:40:00,33.2,32.7,29.71,WNW,295,0.0,0.0,98,0.00,,,0.01,Wunderground v.1.15,2013-12-23 09:40:00,
2013-12-23 04:50:00,33.2,32.7,29.72,WNW,295,0.0,1.0,98,0.00,,,0.01,Wunderground v.1.15,2013-12-23 09:50:00,
2013-12-23 05:00:00,33.3,32.8,29.73,WNW,295,0.0,0.0,98,0.00,,,0.01,Wunderground v.1.15,2013-12-23 10:00:00,
2013-12-23 05:10:00,33.2,32.7,29.72,WNW,295,0.0,0.0,98,0.00,,,0.01,Wunderground v.1.15,2013-12-23 10:10:00,
2013-12-23 05:20:00,33.1,32.6,29.72,WNW,295,0.0,0.0,98,0.00,,,0.02,Wunderground v.1.15,2013-12-23 10:20:00,
2013-12-23 05:30:00,33.0,32.5,29.73,WNW,295,0.0,0.0,98,0.00,,,0.02,Wunderground v.1.15,2013-12-23 10:30:00,
2013-12-23 05:40:00,33.1,32.6,29.73,WNW,295,0.0,0.0,98,0.00,,,0.03,Wunderground v.1.15,2013-12-23 10:40:00,
2013-12-23 05:50:00,33.1,32.6,29.72,WNW,295,0.0,0.0,98,0.00,,,0.03,Wunderground v.1.15,2013-12-23 10:50:00,
2013-12-23 06:00:00,33.1,32.6,29.71,WNW,295,0.0,0.0,98,0.00,,,0.03,Wunderground v.1.15,2013-12-23 11:00:00,
2013-12-23 06:10:00,33.0,32.5,29.71,WNW,302,1.0,1.0,98,0.00,,,0.04,Wunderground v.1.15,2013-12-23 11:10:00,
2013-12-23 06:20:00,32.9,32.4,29.71,NNW,327,2.0,2.0,98,0.00,,,0.04,Wunderground v.1.15,2013-12-23 11:20:00,
2013-12-23 06:30:00,32.8,32.3,29.71,NNE,14,2.0,2.0,98,0.00,,,0.04,Wunderground v.1.15,2013-12-23 11:30:00,
2013-12-23 06:35:00,32.9,32.4,29.71,NNE,14,1.0,2.0,98,0.00,,,0.04,Wunderground v.1.15,2013-12-23 11:35:00,
2013-12-23 06:40:00,32.9,32.4,29.71,NNE,14,0.0,0.0,98,0.00,,,0.04,Wunderground v.1.15,2013-12-23 11:40:00,
2013-12-23 06:50:00,32.8,32.3,29.72,NNE,15,0.0,1.0,98,0.00,,,0.04,Wunderground v.1.15,2013-12-23 11:50:00,
2013-12-23 07:00:00,32.6,32.1,29.72,West,272,2.0,4.0,98,0.00,,,0.04,Wunderground v.1.15,2013-12-23 12:00:00,
2013-12-23 07:10:00,32.6,32.1,29.72,WSW,250,1.0,4.0,98,0.00,,,0.04,Wunderground v.1.15,2013-12-23 12:10:00,
2013-12-23 07:20:00,32.6,32.1,29.73,West,272,1.0,2.0,98,0.00,,,0.04,Wunderground v.1.15,2013-12-23 12:20:00,
2013-12-23 07:25:00,32.7,32.2,29.72,West,272,1.0,2.0,98,0.00,,,0.04,Wunderground v.1.15,2013-12-23 12:25:00,
2013-12-23 07:30:00,32.6,32.1,29.73,WSW,240,1.0,1.0,98,0.00,,,0.04,Wunderground v.1.15,2013-12-23 12:30:00,
2013-12-23 07:40:00,32.8,32.3,29.73,WSW,240,0.0,0.0,98,0.00,,,0.05,Wunderground v.1.15,2013-12-23 12:40:00,
2013-12-23 07:45:00,32.8,32.3,29.72,WSW,240,0.0,0.0,98,0.00,,,0.05,Wunderground v.1.15,2013-12-23 12:45:00,
2013-12-23 07:50:00,32.9,32.4,29.72,WSW,240,0.0,0.0,98,0.00,,,0.06,Wunderground v.1.15,2013-12-23 12:50:00,
2013-12-23 08:00:00,32.8,32.3,29.73,WSW,240,0.0,1.0,98,0.00,,,0.06,Wunderground v.1.15,2013-12-23 13:00:00,
2013-12-23 08:10:00,32.7,32.2,29.72,SSW,196,1.0,3.0,98,0.00,,,0.06,Wunderground v.1.15,2013-12-23 13:10:00,
2013-12-23 08:20:00,32.7,32.2,29.72,WSW,249,2.0,2.0,98,0.00,,,0.06,Wunderground v.1.15,2013-12-23 13:20:00,
2013-12-23 08:25:00,32.6,32.1,29.72,South,189,2.0,2.0,98,0.00,,,0.06,Wunderground v.1.15,2013-12-23 13:25:00,
2013-12-23 08:30:00,32.7,32.2,29.72,South,189,1.0,1.0,98,0.00,,,0.06,Wunderground v.1.15,2013-12-23 13:30:00,
2013-12-23 08:40:00,32.7,32.2,29.71,South,182,1.0,1.0,98,0.00,,,0.06,Wunderground v.1.15,2013-12-23 13:40:00,
2013-12-23 08:50:00,32.7,32.2,29.71,South,184,1.0,1.0,98,0.00,,,0.06,Wunderground v.1.15,2013-12-23 13:50:00,
2013-12-23 09:00:00,32.8,32.3,29.72,South,184,2.0,2.0,98,0.00,,,0.06,Wunderground v.1.15,2013-12-23 14:00:00,
2013-12-23 09:05:00,32.9,32.4,29.73,South,184,2.0,2.0,98,0.00,,,0.06,Wunderground v.1.15,2013-12-23 14:05:00,
2013-12-23 09:10:00,32.9,32.4,29.73,South,184,1.0,1.0,98,0.00,,,0.06,Wunderground v.1.15,2013-12-23 14:10:00,
2013-12-23 09:20:00,33.1,32.6,29.73,South,184,0.0,0.0,98,0.00,,,0.06,Wunderground v.1.15,2013-12-23 14:20:00,
2013-12-23 09:25:00,33.1,32.6,29.73,South,184,0.0,0.0,98,0.00,,,0.06,Wunderground v.1.15,2013-12-23 14:25:00,
2013-12-23 09:30:00,33.2,32.7,29.73,South,184,0.0,0.0,98,0.00,,,0.06,Wunderground v.1.15,2013-12-23 14:30:00,
2013-12-23 09:40:00,33.3,32.8,29.73,South,184,0.0,0.0,98,0.00,,,0.07,Wunderground v.1.15,2013-12-23 14:40:00,
2013-12-23 09:50:00,33.5,33.0,29.72,SSW,194,0.0,1.0,98,0.00,,,0.07,Wunderground v.1.15,2013-12-23 14:50:00,
2013-12-23 10:00:00,33.6,33.1,29.72,SSW,194,1.0,1.0,98,0.00,,,0.07,Wunderground v.1.15,2013-12-23 15:00:00,
2013-12-23 10:10:00,33.7,33.2,29.72,SSW,194,0.0,0.0,98,0.00,,,0.07,Wunderground v.1.15,2013-12-23 15:10:00,
2013-12-23 10:20:00,33.8,33.3,29.71,SSW,194,0.0,0.0,98,0.00,,,0.07,Wunderground v.1.15,2013-12-23 15:20:00,
2013-12-23 10:30:00,33.8,33.3,29.70,SSW,194,0.0,0.0,98,0.00,,,0.07,Wunderground v.1.15,2013-12-23 15:30:00,
2013-12-23 10:35:00,33.8,33.3,29.69,SSW,194,0.0,0.0,98,0.00,,,0.07,Wunderground v.1.15,2013-12-23 15:35:00,
2013-12-23 10:40:00,33.9,33.4,29.70,SSW,194,0.0,0.0,98,0.00,,,0.08,Wunderground v.1.15,2013-12-23 15:40:00,
2013-12-23 10:50:00,34.0,33.5,29.70,SSW,194,0.0,0.0,98,0.00,,,0.08,Wunderground v.1.15,2013-12-23 15:50:00,
2013-12-23 11:00:00,33.9,33.4,29.69,SSW,194,0.0,0.0,98,0.00,,,0.08,Wunderground v.1.15,2013-12-23 16:00:00,
2013-12-23 11:10:00,33.7,33.2,29.69,SSW,194,1.0,1.0,98,0.00,,,0.08,Wunderground v.1.15,2013-12-23 16:10:00,
2013-12-23 11:20:00,33.5,33.0,29.68,SSW,194,0.0,0.0,98,0.00,,,0.08,Wunderground v.1.15,2013-12-23 16:20:00,
2013-12-23 11:30:00,33.5,33.0,29.68,SSW,194,0.0,0.0,98,0.00,,,0.08,Wunderground v.1.15,2013-12-23 16:30:00,
2013-12-23 11:35:00,33.5,33.0,29.67,SSW,194,0.0,0.0,98,0.00,,,0.08,Wunderground v.1.15,2013-12-23 16:35:00,
2013-12-23 11:40:00,33.5,33.0,29.67,SSW,194,0.0,0.0,98,0.00,,,0.08,Wunderground v.1.15,2013-12-23 16:40:00,
2013-12-23 11:50:00,33.8,33.3,29.67,SSW,194,0.0,0.0,98,0.00,,,0.09,Wunderground v.1.15,2013-12-23 16:50:00,
2013-12-23 12:00:00,34.1,33.6,29.68,SSW,194,0.0,0.0,98,0.00,,,0.09,Wunderground v.1.15,2013-12-23 17:00:00,
2013-12-23 12:10:00,33.9,33.4,29.68,SSW,194,0.0,0.0,98,0.00,,,0.09,Wunderground v.1.15,2013-12-23 17:10:00,
2013-12-23 12:15:00,33.9,33.4,29.67,SSW,194,0.0,0.0,98,0.00,,,0.09,Wunderground v.1.15,2013-12-23 17:15:00,
2013-12-23 12:20:00,34.0,33.5,29.67,SSW,194,0.0,0.0,98,0.00,,,0.09,Wunderground v.1.15,2013-12-23 17:20:00,
2013-12-23 12:25:00,34.1,33.6,29.66,SSW,194,0.0,0.0,98,0.00,,,0.09,Wunderground v.1.15,2013-12-23 17:25:00,
2013-12-23 12:30:00,34.1,33.6,29.66,SSW,194,0.0,0.0,98,0.00,,,0.09,Wunderground v.1.15,2013-12-23 17:30:00,
2013-12-23 12:40:00,34.1,33.6,29.65,SSW,194,0.0,0.0,98,0.00,,,0.10,Wunderground v.1.15,2013-12-23 17:40:00,
2013-12-23 12:50:00,34.3,33.8,29.65,SSW,194,0.0,0.0,98,0.00,,,0.10,Wunderground v.1.15,2013-12-23 17:50:00,
2013-12-23 13:00:00,34.0,33.5,29.65,SSW,194,0.0,0.0,98,0.00,,,0.10,Wunderground v.1.15,2013-12-23 18:00:00,
2013-12-23 13:10:00,33.8,33.3,29.64,SSW,194,0.0,0.0,98,0.00,,,0.10,Wunderground v.1.15,2013-12-23 18:10:00,
2013-12-23 13:20:00,33.8,33.3,29.64,SSW,194,0.0,0.0,98,0.00,,,0.10,Wunderground v.1.15,2013-12-23 18:20:00,
2013-12-23 13:30:00,33.8,33.3,29.65,SSW,194,0.0,0.0,98,0.00,,,0.10,Wunderground v.1.15,2013-12-23 18:30:00,
2013-12-23 13:40:00,33.7,33.2,29.65,SSW,194,1.0,1.0,98,0.00,,,0.10,Wunderground v.1.15,2013-12-23 18:40:00,
2013-12-23 13:50:00,33.8,33.3,29.65,SSW,194,0.0,0.0,98,0.00,,,0.10,Wunderground v.1.15,2013-12-23 18:50:00,
2013-12-23 14:00:00,33.8,33.3,29.66,North,360,1.0,2.0,98,0.00,,,0.10,Wunderground v.1.15,2013-12-23 19:00:00,
2013-12-23 14:10:00,33.9,33.4,29.66,North,9,2.0,2.0,98,0.00,,,0.10,Wunderground v.1.15,2013-12-23 19:10:00,
2013-12-23 14:20:00,34.0,33.5,29.66,North,360,1.0,1.0,98,0.00,,,0.10,Wunderground v.1.15,2013-12-23 19:20:00,
2013-12-23 14:25:00,34.2,33.7,29.66,North,360,0.0,1.0,98,0.00,,,0.10,Wunderground v.1.15,2013-12-23 19:25:00,
2013-12-23 14:30:00,34.1,33.6,29.66,North,360,0.0,0.0,98,0.00,,,0.10,Wunderground v.1.15,2013-12-23 19:30:00,
2013-12-23 14:40:00,33.9,33.4,29.67,North,360,0.0,0.0,98,0.00,,,0.10,Wunderground v.1.15,2013-12-23 19:40:00,
2013-12-23 14:50:00,33.8,33.3,29.67,North,360,0.0,0.0,98,0.00,,,0.11,Wunderground v.1.15,2013-12-23 19:50:00,
2013-12-23 15:00:00,33.9,33.4,29.67,North,360,0.0,0.0,98,0.00,,,0.11,Wunderground v.1.15,2013-12-23 20:00:00,
2013-12-23 15:10:00,34.1,33.6,29.67,North,360,0.0,0.0,98,0.00,,,0.11,Wunderground v.1.15,2013-12-23 20:10:00,
2013-12-23 15:20:00,34.1,33.6,29.69,North,360,0.0,0.0,98,0.00,,,0.11,Wunderground v.1.15,2013-12-23 20:20:00,
2013-12-23 15:30:00,34.1,33.6,29.68,NE,51,0.0,0.0,98,0.00,,,0.11,Wunderground v.1.15,2013-12-23 20:30:00,
2013-12-23 15:40:00,34.2,33.7,29.68,NE,49,0.0,3.0,98,0.00,,,0.11,Wunderground v.1.15,2013-12-23 20:40:00,
2013-12-23 15:50:00,34.4,33.9,29.69,NE,34,1.0,1.0,98,0.00,,,0.12,Wunderground v.1.15,2013-12-23 20:50:00,
2013-12-23 16:00:00,34.4,33.9,29.69,NE,34,0.0,0.0,98,0.00,,,0.12,Wunderground v.1.15,2013-12-23 21:00:00,
2013-12-23 16:10:00,33.8,33.3,29.69,NE,34,0.0,0.0,98,0.00,,,0.12,Wunderground v.1.15,2013-12-23 21:10:00,
2013-12-23 16:15:00,33.8,33.3,29.70,NE,34,0.0,0.0,98,0.00,,,0.12,Wunderground v.1.15,2013-12-23 21:15:00,
2013-12-23 16:20:00,33.8,33.3,29.70,NE,34,0.0,0.0,98,0.00,,,0.12,Wunderground v.1.15,2013-12-23 21:20:00,
2013-12-23 16:30:00,33.7,33.2,29.70,NNE,32,0.0,1.0,98,0.00,,,0.12,Wunderground v.1.15,2013-12-23 21:30:00,
2013-12-23 16:40:00,33.8,33.3,29.70,NNE,32,0.0,0.0,98,0.00,,,0.12,Wunderground v.1.15,2013-12-23 21:40:00,
2013-12-23 16:50:00,34.0,33.5,29.71,NNE,32,0.0,0.0,98,0.00,,,0.12,Wunderground v.1.15,2013-12-23 21:50:00,
2013-12-23 17:00:00,33.9,33.4,29.71,NNE,32,0.0,0.0,98,0.00,,,0.12,Wunderground v.1.15,2013-12-23 22:00:00,
2013-12-23 17:05:00,33.8,33.3,29.71,NNE,32,0.0,0.0,98,0.00,,,0.12,Wunderground v.1.15,2013-12-23 22:05:00,
2013-12-23 17:10:00,33.8,33.3,29.71,NNE,32,0.0,0.0,98,0.00,,,0.12,Wunderground v.1.15,2013-12-23 22:10:00,
2013-12-23 17:20:00,33.9,33.4,29.71,NNE,32,0.0,0.0,98,0.00,,,0.12,Wunderground v.1.15,2013-12-23 22:20:00,
2013-12-23 17:25:00,33.9,33.4,29.72,NNE,14,0.0,0.0,98,0.00,,,0.12,Wunderground v.1.15,2013-12-23 22:25:00,
2013-12-23 17:30:00,34.0,33.5,29.72,North,355,0.0,1.0,98,0.00,,,0.12,Wunderground v.1.15,2013-12-23 22:30:00,
2013-12-23 17:40:00,33.8,33.3,29.72,NNW,348,2.0,3.0,98,0.00,,,0.12,Wunderground v.1.15,2013-12-23 22:40:00,
2013-12-23 17:50:00,33.5,33.0,29.72,North,9,3.0,3.0,98,0.00,,,0.12,Wunderground v.1.15,2013-12-23 22:50:00,
2013-12-23 18:00:00,33.2,32.7,29.73,NNW,340,2.0,2.0,98,0.00,,,0.12,Wunderground v.1.15,2013-12-23 23:00:00,
2013-12-23 18:10:00,33.0,32.5,29.73,NNW,335,2.0,5.0,98,0.00,,,0.12,Wunderground v.1.15,2013-12-23 23:10:00,
2013-12-23 18:20:00,32.8,32.3,29.74,NNW,327,3.0,4.0,98,0.00,,,0.12,Wunderground v.1.15,2013-12-23 23:20:00,
2013-12-23 18:30:00,32.7,32.2,29.75,North,5,2.0,3.0,98,0.00,,,0.12,Wunderground v.1.15,2013-12-23 23:30:00,
2013-12-23 18:40:00,32.6,32.1,29.75,NW,309,4.0,4.0,98,0.00,,,0.12,Wunderground v.1.15,2013-12-23 23:40:00,
2013-12-23 18:50:00,32.6,32.1,29.76,NW,321,3.0,8.0,98,0.00,,,0.12,Wunderground v.1.15,2013-12-23 23:50:00,
2013-12-23 18:55:00,32.4,31.9,29.76,NNW,333,5.0,8.0,98,0.00,,,0.12,Wunderground v.1.15,2013-12-23 23:55:00,
2013-12-23 19:05:00,32.1,31.6,29.76,NW,311,7.0,7.0,98,0.00,,,0.12,Wunderground v.1.15,2013-12-24 00:05:00,
2013-12-23 19:10:00,32.1,31.6,29.77,NW,309,6.0,6.0,98,0.00,,,0.12,Wunderground v.1.15,2013-12-24 00:10:00,
2013-12-23 19:15:00,32.0,31.5,29.77,NW,317,6.0,6.0,98,0.00,,,0.12,Wunderground v.1.15,2013-12-24 00:15:00,
2013-12-23 19:20:00,31.9,31.4,29.78,NNW,329,7.0,7.0,98,0.00,,,0.12,Wunderground v.1.15,2013-12-24 00:20:00,
2013-12-23 19:30:00,31.6,31.1,29.78,NNW,327,8.0,11.0,98,0.00,,,0.12,Wunderground v.1.15,2013-12-24 00:30:00,
2013-12-23 19:40:00,31.4,30.6,29.78,WNW,300,7.0,7.0,97,0.00,,,0.12,Wunderground v.1.15,2013-12-24 00:40:00,
2013-12-23 19:50:00,31.3,30.5,29.78,NW,317,7.0,7.0,97,0.00,,,0.12,Wunderground v.1.15,2013-12-24 00:50:00,
2013-12-23 20:00:00,31.2,30.2,29.79,NW,319,5.0,7.0,96,0.00,,,0.12,Wunderground v.1.15,2013-12-24 01:00:00,
2013-12-23 20:10:00,31.0,30.0,29.80,NW,318,5.0,6.0,96,0.00,,,0.12,Wunderground v.1.15,2013-12-24 01:10:00,
2013-12-23 20:20:00,30.8,29.8,29.80,North,9,5.0,5.0,96,0.00,,,0.12,Wunderground v.1.15,2013-12-24 01:20:00,
2013-12-23 20:25:00,30.7,29.7,29.80,NW,311,4.0,5.0,96,0.00,,,0.12,Wunderground v.1.15,2013-12-24 01:25:00,
2013-12-23 20:35:00,30.5,29.2,29.80,NW,318,4.0,8.0,95,0.00,,,0.12,Wunderground v.1.15,2013-12-24 01:35:00,
2013-12-23 20:40:00,30.3,29.0,29.80,North,5,5.0,5.0,95,0.00,,,0.12,Wunderground v.1.15,2013-12-24 01:40:00,
2013-12-23 20:45:00,30.3,28.8,29.80,WNW,301,5.0,5.0,94,0.00,,,0.12,Wunderground v.1.15,2013-12-24 01:45:00,
2013-12-23 20:50:00,30.3,28.8,29.80,NW,304,4.0,6.0,94,0.00,,,0.13,Wunderground v.1.15,2013-12-24 01:50:00,
2013-12-23 21:00:00,30.4,28.6,29.80,NW,310,5.0,5.0,93,0.00,,,0.13,Wunderground v.1.15,2013-12-24 02:00:00,
2013-12-23 21:10:00,30.3,28.3,29.80,West,275,5.0,5.0,92,0.00,,,0.13,Wunderground v.1.15,2013-12-24 02:10:00,
2013-12-23 21:20:00,30.3,28.0,29.80,NW,318,5.0,5.0,91,0.00,,,0.13,Wunderground v.1.15,2013-12-24 02:20:00,
2013-12-23 21:30:00,30.2,27.3,29.80,NW,320,5.0,6.0,89,0.00,,,0.13,Wunderground v.1.15,2013-12-24 02:30:00,
2013-12-23 21:40:00,30.2,27.3,29.80,West,280,5.0,6.0,89,0.00,,,0.13,Wunderground v.1.15,2013-12-24 02:40:00,
2013-12-23 21:50:00,30.2,27.3,29.80,NNW,329,5.0,5.0,89,0.00,,,0.13,Wunderground v.1.15,2013-12-24 02:50:00,
2013-12-23 22:00:00,30.1,26.4,29.80,WNW,282,5.0,5.0,86,0.00,,,0.13,Wunderground v.1.15,2013-12-24 03:00:00,
2013-12-23 22:10:00,29.8,25.8,29.80,WNW,292,5.0,5.0,85,0.00,,,0.13,Wunderground v.1.15,2013-12-24 03:10:00,
2013-12-23 22:20:00,29.6,25.9,29.80,WNW,300,4.0,10.0,86,0.00,,,0.13,Wunderground v.1.15,2013-12-24 03:20:00,
2013-12-23 22:25:00,29.6,25.6,29.80,NW,311,5.0,10.0,85,0.00,,,0.13,Wunderground v.1.15,2013-12-24 03:25:00,
2013-12-23 22:30:00,29.5,25.5,29.80,NW,325,5.0,5.0,85,0.00,,,0.13,Wunderground v.1.15,2013-12-24 03:30:00,
2013-12-23 22:40:00,29.3,25.6,29.80,North,350,3.0,3.0,86,0.00,,,0.13,Wunderground v.1.15,2013-12-24 03:40:00,
2013-12-23 22:50:00,29.0,24.8,29.81,WSW,254,3.0,4.0,84,0.00,,,0.13,Wunderground v.1.15,2013-12-24 03:50:00,
2013-12-23 22:55:00,29.0,24.2,29.81,NW,306,3.0,4.0,82,0.00,,,0.13,Wunderground v.1.15,2013-12-24 03:55:00,
2013-12-23 23:05:00,29.0,24.2,29.81,SW,217,4.0,4.0,82,0.00,,,0.13,Wunderground v.1.15,2013-12-24 04:05:00,
2013-12-23 23:10:00,28.9,24.1,29.82,WSW,246,4.0,4.0,82,0.00,,,0.13,Wunderground v.1.15,2013-12-24 04:10:00,
2013-12-23 23:20:00,28.8,23.7,29.82,NW,309,4.0,7.0,81,0.00,,,0.13,Wunderground v.1.15,2013-12-24 04:20:00,
2013-12-23 23:30:00,28.6,22.6,29.82,West,276,9.0,9.0,78,0.00,,,0.13,Wunderground v.1.15,2013-12-24 04:30:00,
2013-12-23 23:35:00,28.5,22.8,29.82,WNW,282,7.0,9.0,79,0.00,,,0.13,Wunderground v.1.15,2013-12-24 04:35:00,
2013-12-23 23:45:00,28.4,23.0,29.81,West,261,5.0,7.0,80,0.00,,,0.13,Wunderground v.1.15,2013-12-24 04:45:00,
2013-12-23 23:50:00,28.3,22.6,29.82,North,5,4.0,5.0,79,0.00,,,0.13,Wunderground v.1.15,2013-12-24 04:50:00,
2013-12-23 23:55:00,28.1,22.1,29.82,NNE,33,3.0,5.0,78,0.00,,,0.13,Wunderground v.1.15,2013-12-24 04:55:00,